Time;durP1;ratioP1;P1;durP2;ratioP2;P2;SDS_P1;SDS_P2;PMS_P1;PMS_P2;Temp;Humidity;BMP_temperature;BMP_pressure;BME280_temperature;BME280_humidity;BME280_pressure;Samples;Min_cycle;Max_cycle;Signal;HPM_P1;HPM_P2
2023/04/17 00:01:45;;;;;;;17.30;12.23;;;;;;;;;;5076707;28;20555;-71
2023/04/17 00:04:13;;;;;;;15.53;11.10;;;;;;;;;;5073475;28;20461;-71
2023/04/17 00:06:42;;;;;;;19.87;12.00;;;;;;;;;;5076208;28;20456;-72
2023/04/17 00:09:09;;;;;;;19.93;12.53;;;;;;;;;;5077482;28;20453;-69
2023/04/17 00:11:39;;;;;;;19.67;13.20;;;;;;;;;;5081872;28;20473;-70
2023/04/17 00:14:06;;;;;;;14.40;11.07;;;;;;;;;;5080460;28;20456;-70
2023/04/17 00:16:34;;;;;;;17.40;13.00;;;;;;;;;;5080377;28;20920;-70
2023/04/17 00:19:01;;;;;;;14.00;10.67;;;;;;;;;;5079324;28;20547;-71
2023/04/17 00:21:30;;;;;;;15.13;12.90;;;;;;;;;;5079081;28;20761;-71
2023/04/17 00:23:58;;;;;;;17.50;10.80;;;;;;;;;;5080121;28;20524;-70
2023/04/17 00:26:26;;;;;;;16.03;11.97;;;;;;;;;;5078537;28;20452;-71
2023/04/17 00:29:01;;;;;;;16.03;11.60;;;;;;;;;;5078234;28;20465;-71
2023/04/17 00:31:29;;;;;;;21.23;12.87;;;;;;;;;;5060105;28;20452;-71
2023/04/17 00:34:13;;;;;;;19.73;11.70;;;;;;;;;;5057925;28;20466;-71
2023/04/17 00:36:41;;;;;;;19.57;12.17;;;;;;;;;;5059779;28;20453;-71
2023/04/17 00:39:09;;;;;;;16.03;11.03;;;;;;;;;;5060898;28;20901;-70
2023/04/17 00:41:36;;;;;;;19.50;12.30;;;;;;;;;;5061015;28;20472;-71
2023/04/17 00:44:09;;;;;;;18.37;12.33;;;;;;;;;;5071591;28;20453;-72
2023/04/17 00:46:36;;;;;;;14.30;10.57;;;;;;;;;;5067771;28;20480;-71
2023/04/17 00:49:07;;;;;;;15.90;11.53;;;;;;;;;;5066965;28;20465;-71
2023/04/17 00:51:38;;;;;;;15.87;11.57;;;;;;;;;;5070223;28;20449;-70
2023/04/17 00:54:06;;;;;;;15.30;12.03;;;;;;;;;;5068693;28;20959;-71
2023/04/17 00:56:38;;;;;;;14.40;11.40;;;;;;;;;;5072879;28;20473;-71
2023/04/17 00:59:12;;;;;;;18.20;11.03;;;;;;;;;;5067537;28;20465;-71
2023/04/17 01:01:39;;;;;;;17.47;12.20;;;;;;;;;;5071108;28;20449;-71
2023/04/17 01:04:08;;;;;;;19.47;11.03;;;;;;;;;;5063078;28;20855;-70
2023/04/17 01:06:36;;;;;;;15.27;10.60;;;;;;;;;;5072256;28;20472;-71
2023/04/17 01:09:03;;;;;;;17.70;12.20;;;;;;;;;;5068845;28;20450;-71
2023/04/17 01:11:31;;;;;;;13.77;11.03;;;;;;;;;;5071013;28;20445;-71
2023/04/17 01:13:59;;;;;;;17.97;11.33;;;;;;;;;;5067026;28;20513;-70
2023/04/17 01:16:29;;;;;;;16.90;11.27;;;;;;;;;;5068569;28;20494;-72
2023/04/17 01:18:58;;;;;;;23.30;12.53;;;;;;;;;;5061007;28;20706;-71
2023/04/17 01:21:28;;;;;;;19.03;9.60;;;;;;;;;;5063698;28;20484;-72
2023/04/17 01:23:56;;;;;;;14.87;10.73;;;;;;;;;;5063539;28;20472;-70
2023/04/17 01:26:28;;;;;;;17.70;11.73;;;;;;;;;;5064120;28;20446;-71
2023/04/17 01:28:56;;;;;;;16.97;10.97;;;;;;;;;;5078924;28;20559;-70
2023/04/17 01:31:24;;;;;;;14.13;10.20;;;;;;;;;;5078364;28;20454;-72
2023/04/17 01:33:56;;;;;;;16.77;10.80;;;;;;;;;;5077462;28;20449;-70
2023/04/17 01:36:26;;;;;;;13.27;9.23;;;;;;;;;;5078550;28;20507;-70
2023/04/17 01:38:58;;;;;;;18.07;10.23;;;;;;;;;;5078553;28;20631;-71
2023/04/17 01:41:47;;;;;;;12.83;10.03;;;;;;;;;;5064807;28;20758;-70
2023/04/17 01:44:21;;;;;;;14.50;10.40;;;;;;;;;;5073550;28;20976;-72
2023/04/17 01:46:50;;;;;;;15.57;10.87;;;;;;;;;;5074053;28;21037;-72
2023/04/17 01:49:24;;;;;;;19.17;11.07;;;;;;;;;;5070164;28;20448;-71
2023/04/17 01:51:52;;;;;;;19.80;10.67;;;;;;;;;;5069266;28;20662;-71
2023/04/17 01:54:21;;;;;;;14.13;9.40;;;;;;;;;;5069179;28;20747;-71
2023/04/17 01:56:48;;;;;;;16.47;9.80;;;;;;;;;;5069922;28;20441;-70
2023/04/17 01:59:32;;;;;;;18.07;11.03;;;;;;;;;;5066134;28;20685;-70
2023/04/17 02:02:00;;;;;;;11.83;9.60;;;;;;;;;;5074128;28;20457;-69
2023/04/17 02:04:27;;;;;;;17.73;9.93;;;;;;;;;;5064188;28;20449;-71
2023/04/17 02:06:55;;;;;;;13.57;10.30;;;;;;;;;;5065188;28;20489;-70
2023/04/17 02:09:26;;;;;;;15.80;9.30;;;;;;;;;;5061785;28;20464;-71
2023/04/17 02:11:53;;;;;;;14.70;11.27;;;;;;;;;;5069937;28;20434;-71
2023/04/17 02:14:21;;;;;;;17.87;11.43;;;;;;;;;;5070070;28;20821;-72
2023/04/17 02:16:52;;;;;;;16.50;10.67;;;;;;;;;;5072843;28;20452;-70
2023/04/17 02:19:20;;;;;;;17.23;11.47;;;;;;;;;;5078452;28;20448;-72
2023/04/17 02:21:48;;;;;;;18.27;10.50;;;;;;;;;;5078151;28;20481;-71
2023/04/17 02:24:15;;;;;;;17.37;9.90;;;;;;;;;;5077659;28;20468;-71
2023/04/17 02:26:45;;;;;;;18.73;11.27;;;;;;;;;;5075682;28;20456;-71
2023/04/17 02:29:18;;;;;;;12.43;8.93;;;;;;;;;;5077288;28;20884;-72
2023/04/17 02:31:46;;;;;;;13.90;10.60;;;;;;;;;;5063751;28;20450;-71
2023/04/17 02:34:15;;;;;;;14.57;10.67;;;;;;;;;;5063679;28;20457;-71
2023/04/17 02:36:46;;;;;;;15.17;9.53;;;;;;;;;;5076537;28;20951;-71
2023/04/17 02:39:13;;;;;;;19.13;11.87;;;;;;;;;;5077202;28;20465;-70
2023/04/17 02:41:41;;;;;;;15.67;11.43;;;;;;;;;;5077470;28;20485;-72
2023/04/17 02:44:09;;;;;;;13.90;10.03;;;;;;;;;;5076712;28;20479;-71
2023/04/17 02:46:36;;;;;;;14.83;10.20;;;;;;;;;;5075388;28;20461;-70
2023/04/17 02:49:04;;;;;;;14.33;9.77;;;;;;;;;;5074522;28;21083;-70
2023/04/17 02:51:33;;;;;;;17.67;11.60;;;;;;;;;;5075441;28;20452;-71
2023/04/17 02:54:01;;;;;;;16.23;10.97;;;;;;;;;;5075391;28;20489;-72
2023/04/17 02:56:28;;;;;;;13.03;10.17;;;;;;;;;;5075099;28;20534;-71
2023/04/17 02:58:56;;;;;;;16.97;10.67;;;;;;;;;;5075407;28;20475;-72
2023/04/17 03:01:24;;;;;;;18.00;11.60;;;;;;;;;;5074895;28;20804;-71
2023/04/17 03:03:51;;;;;;;17.90;11.20;;;;;;;;;;5075720;28;20495;-70
2023/04/17 03:06:19;;;;;;;19.23;11.10;;;;;;;;;;5075463;28;20461;-71
2023/04/17 03:08:48;;;;;;;16.33;11.20;;;;;;;;;;5076384;28;20650;-70
2023/04/17 03:11:15;;;;;;;16.77;11.33;;;;;;;;;;5077561;28;20485;-72
2023/04/17 03:13:44;;;;;;;15.77;11.63;;;;;;;;;;5076939;28;20492;-71
2023/04/17 03:16:13;;;;;;;19.27;12.00;;;;;;;;;;5076531;28;20792;-72
2023/04/17 03:18:41;;;;;;;17.10;12.47;;;;;;;;;;5077140;28;20453;-71
2023/04/17 03:21:09;;;;;;;19.40;12.73;;;;;;;;;;5076209;28;20580;-71
2023/04/17 03:23:37;;;;;;;19.17;11.30;;;;;;;;;;5078174;28;20972;-71
2023/04/17 03:26:06;;;;;;;20.73;11.47;;;;;;;;;;5079240;28;20448;-71
2023/04/17 03:28:34;;;;;;;15.97;11.00;;;;;;;;;;5077107;28;20555;-71
2023/04/17 03:31:01;;;;;;;18.17;11.53;;;;;;;;;;5059006;28;20468;-72
2023/04/17 03:33:30;;;;;;;19.07;13.23;;;;;;;;;;5076114;28;20536;-73
2023/04/17 03:36:01;;;;;;;17.73;12.33;;;;;;;;;;5077562;28;20464;-71
2023/04/17 03:38:28;;;;;;;17.57;11.17;;;;;;;;;;5079762;28;20688;-71
2023/04/17 03:40:56;;;;;;;17.53;11.30;;;;;;;;;;5078540;28;20493;-72
2023/04/17 03:43:29;;;;;;;17.17;11.50;;;;;;;;;;5081999;28;20452;-71
2023/04/17 03:46:00;;;;;;;16.50;10.70;;;;;;;;;;5080997;28;20703;-71
2023/04/17 03:48:28;;;;;;;16.97;11.57;;;;;;;;;;5082653;28;20472;-72
2023/04/17 03:50:56;;;;;;;21.73;13.47;;;;;;;;;;5080612;28;20457;-71
2023/04/17 03:53:24;;;;;;;20.87;13.13;;;;;;;;;;5079830;28;20481;-71
2023/04/17 03:55:52;;;;;;;15.20;11.60;;;;;;;;;;5080177;28;20461;-70
2023/04/17 03:58:19;;;;;;;17.67;12.67;;;;;;;;;;5078317;28;20463;-71
2023/04/17 04:00:54;;;;;;;21.70;13.00;;;;;;;;;;5082011;28;20484;-71
2023/04/17 04:03:22;;;;;;;16.60;11.13;;;;;;;;;;5079026;28;20479;-72
2023/04/17 04:05:50;;;;;;;17.00;12.30;;;;;;;;;;5081810;28;20536;-72
2023/04/17 04:08:17;;;;;;;18.90;13.53;;;;;;;;;;5079750;28;20896;-71
2023/04/17 04:10:48;;;;;;;18.13;14.20;;;;;;;;;;5079839;28;20921;-72
2023/04/17 04:13:16;;;;;;;18.63;13.87;;;;;;;;;;5080618;28;20453;-71
2023/04/17 04:15:43;;;;;;;20.33;13.90;;;;;;;;;;5065015;28;20466;-71
2023/04/17 04:18:12;;;;;;;18.30;12.50;;;;;;;;;;5061067;28;20454;-72
2023/04/17 04:20:40;;;;;;;23.03;14.57;;;;;;;;;;5071246;28;20488;-72
2023/04/17 04:23:07;;;;;;;21.83;14.17;;;;;;;;;;5081233;28;20460;-71
2023/04/17 04:25:35;;;;;;;20.53;13.93;;;;;;;;;;5079096;28;20452;-70
2023/04/17 04:28:03;;;;;;;19.47;13.23;;;;;;;;;;5077964;28;20456;-70
2023/04/17 04:30:34;;;;;;;21.87;15.40;;;;;;;;;;5079735;28;20915;-70
2023/04/17 04:33:04;;;;;;;20.03;12.83;;;;;;;;;;5079009;28;20826;-70
2023/04/17 04:38:01;;;;;;;16.90;12.90;;;;;;;;;;5073175;28;20487;-70
2023/04/17 04:40:29;;;;;;;25.10;16.53;;;;;;;;;;5081442;28;20467;-70
2023/04/17 04:42:57;;;;;;;19.47;13.60;;;;;;;;;;5076670;28;20457;-70
2023/04/17 04:45:25;;;;;;;17.67;14.20;;;;;;;;;;5079331;28;20449;-72
2023/04/17 04:47:53;;;;;;;22.30;13.60;;;;;;;;;;5085293;28;20449;-72
2023/04/17 04:50:23;;;;;;;22.33;14.83;;;;;;;;;;5078546;28;20450;-72
2023/04/17 04:52:52;;;;;;;19.63;14.10;;;;;;;;;;5070256;28;20713;-71
2023/04/17 04:55:20;;;;;;;21.00;14.23;;;;;;;;;;5055954;28;20446;-71
2023/04/17 04:57:54;;;;;;;22.80;13.13;;;;;;;;;;5067753;28;20467;-71
2023/04/17 05:00:26;;;;;;;25.63;14.20;;;;;;;;;;5074227;28;20865;-70
2023/04/17 05:02:55;;;;;;;25.73;14.93;;;;;;;;;;5074789;28;20476;-70
2023/04/17 05:05:25;;;;;;;24.37;13.80;;;;;;;;;;5073510;28;20480;-71
2023/04/17 05:07:57;;;;;;;22.30;15.60;;;;;;;;;;5075005;28;20461;-71
2023/04/17 05:10:25;;;;;;;23.20;15.00;;;;;;;;;;5076221;28;20724;-70
2023/04/17 05:12:53;;;;;;;28.23;16.33;;;;;;;;;;5068933;28;20839;-71
2023/04/17 05:15:20;;;;;;;26.77;15.63;;;;;;;;;;5054789;28;20454;-71
2023/04/17 05:17:48;;;;;;;33.17;16.17;;;;;;;;;;5053684;28;20462;-71
2023/04/17 05:20:22;;;;;;;23.93;14.60;;;;;;;;;;5073033;28;20585;-70
2023/04/17 05:22:55;;;;;;;19.30;14.30;;;;;;;;;;5063741;28;20477;-70
2023/04/17 05:25:25;;;;;;;24.93;14.57;;;;;;;;;;5052476;28;20457;-70
2023/04/17 05:27:53;;;;;;;25.00;14.40;;;;;;;;;;5054180;28;21097;-70
2023/04/17 05:30:24;;;;;;;24.53;14.80;;;;;;;;;;5071941;28;20526;-71
2023/04/17 05:32:52;;;;;;;20.97;15.13;;;;;;;;;;5069911;28;20507;-72
2023/04/17 05:35:45;;;;;;;24.07;15.80;;;;;;;;;;5058104;28;20458;-72
2023/04/17 05:38:13;;;;;;;20.87;14.50;;;;;;;;;;5029722;28;20902;-69
2023/04/17 05:40:42;;;;;;;21.67;14.23;;;;;;;;;;5030212;28;20466;-70
2023/04/17 05:43:12;;;;;;;20.83;15.50;;;;;;;;;;5032047;28;20493;-70
2023/04/17 05:45:41;;;;;;;24.23;13.87;;;;;;;;;;5030492;28;20447;-71
2023/04/17 05:48:14;;;;;;;29.03;16.23;;;;;;;;;;5035518;28;20557;-70
2023/04/17 05:50:42;;;;;;;24.17;15.37;;;;;;;;;;5050109;28;20469;-70
2023/04/17 05:53:12;;;;;;;20.50;15.30;;;;;;;;;;5048850;28;20444;-70
2023/04/17 05:55:43;;;;;;;17.93;14.17;;;;;;;;;;5044820;28;20867;-70
2023/04/17 05:58:34;;;;;;;24.60;14.33;;;;;;;;;;5027227;28;20459;-69
2023/04/17 06:01:17;;;;;;;23.70;14.50;;;;;;;;;;5040091;28;20462;-70
2023/04/17 06:03:49;;;;;;;20.70;14.73;;;;;;;;;;5063477;28;20508;-71
2023/04/17 06:06:18;;;;;;;24.17;14.97;;;;;;;;;;5068681;28;20461;-71
2023/04/17 06:08:46;;;;;;;23.40;16.07;;;;;;;;;;5066779;28;20805;-71
2023/04/17 06:11:16;;;;;;;23.37;15.07;;;;;;;;;;5071843;28;20780;-71
2023/04/17 06:13:44;;;;;;;25.43;16.10;;;;;;;;;;5066812;28;20456;-71
2023/04/17 06:16:12;;;;;;;21.30;15.03;;;;;;;;;;5069559;28;20449;-70
2023/04/17 06:18:40;;;;;;;22.80;14.93;;;;;;;;;;5070886;28;20476;-71
2023/04/17 06:21:08;;;;;;;24.83;15.33;;;;;;;;;;5067206;28;21140;-71
2023/04/17 06:23:35;;;;;;;26.20;14.70;;;;;;;;;;5061450;28;20462;-70
2023/04/17 06:26:03;;;;;;;20.20;15.77;;;;;;;;;;5066188;28;20449;-70
2023/04/17 06:28:33;;;;;;;25.17;15.10;;;;;;;;;;5067033;28;20445;-69
2023/04/17 06:31:02;;;;;;;23.23;14.67;;;;;;;;;;5066866;28;20498;-70
2023/04/17 06:33:38;;;;;;;20.70;14.10;;;;;;;;;;5068432;28;20743;-71
2023/04/17 06:36:12;;;;;;;21.23;15.77;;;;;;;;;;5068692;28;21242;-71
2023/04/17 06:38:45;;;;;;;31.60;15.70;;;;;;;;;;5068825;28;20436;-72
2023/04/17 06:41:15;;;;;;;22.47;16.40;;;;;;;;;;5070053;28;20522;-71
2023/04/17 06:43:46;;;;;;;30.30;15.13;;;;;;;;;;5070986;28;20453;-72
2023/04/17 06:46:14;;;;;;;19.90;13.17;;;;;;;;;;5071052;28;20501;-72
2023/04/17 06:49:05;;;;;;;19.83;13.90;;;;;;;;;;5069562;28;20460;-72
2023/04/17 06:51:39;;;;;;;15.93;11.87;;;;;;;;;;5071468;28;20477;-72
2023/04/17 06:54:14;;;;;;;19.70;13.00;;;;;;;;;;5068124;28;20500;-72
2023/04/17 06:56:45;;;;;;;19.73;11.93;;;;;;;;;;5065830;28;20467;-72
2023/04/17 06:59:14;;;;;;;20.90;12.47;;;;;;;;;;5068031;28;20455;-72
2023/04/17 07:01:42;;;;;;;17.83;11.47;;;;;;;;;;5069018;28;20562;-70
2023/04/17 07:04:20;;;;;;;17.17;11.93;;;;;;;;;;5071014;28;20464;-71
2023/04/17 07:06:49;;;;;;;13.67;10.10;;;;;;;;;;5068797;28;20479;-72
2023/04/17 07:09:23;;;;;;;14.50;10.93;;;;;;;;;;5059283;28;21269;-72
2023/04/17 07:12:02;;;;;;;18.03;9.93;;;;;;;;;;5053886;28;20434;-72
2023/04/17 07:14:32;;;;;;;19.23;10.50;;;;;;;;;;5052531;28;20519;-70
2023/04/17 07:17:04;;;;;;;18.20;12.57;;;;;;;;;;5049933;28;21117;-70
2023/04/17 07:19:34;;;;;;;20.20;10.70;;;;;;;;;;5057971;28;20470;-70
2023/04/17 07:22:06;;;;;;;18.03;12.50;;;;;;;;;;5064206;28;21011;-72
2023/04/17 07:24:56;;;;;;;17.60;11.30;;;;;;;;;;5052561;28;20461;-71
2023/04/17 07:27:26;;;;;;;14.50;10.20;;;;;;;;;;5062997;28;20475;-71
2023/04/17 07:30:01;;;;;;;16.20;10.80;;;;;;;;;;5057318;28;20461;-70
2023/04/17 07:32:34;;;;;;;20.03;11.47;;;;;;;;;;5069867;28;20792;-71
2023/04/17 07:35:09;;;;;;;19.47;12.00;;;;;;;;;;5051697;28;20458;-72
2023/04/17 07:41:07;;;;;;;21.60;10.87;;;;;;;;;;5062326;28;20500;-71
2023/04/17 07:43:55;;;;;;;14.77;10.53;;;;;;;;;;5073483;28;21023;-72
2023/04/17 07:46:33;;;;;;;14.33;9.37;;;;;;;;;;5062573;28;20473;-72
2023/04/17 07:49:01;;;;;;;14.70;10.00;;;;;;;;;;5068712;28;20464;-71
2023/04/17 07:51:39;;;;;;;16.43;9.90;;;;;;;;;;5072264;28;20522;-72
2023/04/17 07:57:08;;;;;;;14.57;10.17;;;;;;;;;;5044012;28;20465;-71
2023/04/17 07:59:52;;;;;;;16.40;12.80;;;;;;;;;;5061304;28;20475;-72
2023/04/17 08:05:06;;;;;;;19.53;10.70;;;;;;;;;;5063067;28;20524;-72
2023/04/17 08:07:42;;;;;;;17.33;12.67;;;;;;;;;;5048528;28;20461;-71
2023/04/17 08:13:27;;;;;;;13.80;10.73;;;;;;;;;;4953512;28;20461;-73
2023/04/17 08:15:56;;;;;;;20.93;10.37;;;;;;;;;;5008705;28;20464;-72
2023/04/17 08:18:26;;;;;;;17.70;10.33;;;;;;;;;;5064383;28;20750;-72
2023/04/17 08:21:02;;;;;;;18.13;10.93;;;;;;;;;;5065389;28;20461;-72
2023/04/17 08:23:30;;;;;;;16.80;11.60;;;;;;;;;;5067648;28;20488;-72
2023/04/17 08:25:59;;;;;;;17.90;11.37;;;;;;;;;;5067502;28;20561;-71
2023/04/17 08:28:27;;;;;;;15.20;11.57;;;;;;;;;;5068802;28;20461;-71
2023/04/17 08:30:59;;;;;;;16.10;11.43;;;;;;;;;;5071103;28;20457;-72
2023/04/17 08:36:24;;;;;;;18.87;12.17;;;;;;;;;;5052013;28;20446;-72
2023/04/17 08:38:52;;;;;;;19.40;12.27;;;;;;;;;;5053536;28;20877;-71
2023/04/17 08:41:23;;;;;;;17.53;11.70;;;;;;;;;;5067014;28;20496;-71
2023/04/17 08:43:53;;;;;;;15.00;11.47;;;;;;;;;;5068268;28;20489;-72
2023/04/17 08:46:22;;;;;;;16.43;11.47;;;;;;;;;;5074794;28;20517;-71
2023/04/17 08:48:50;;;;;;;15.93;11.23;;;;;;;;;;5074418;28;20464;-72
2023/04/17 08:51:25;;;;;;;13.70;10.57;;;;;;;;;;5061128;28;20484;-72
2023/04/17 08:53:58;;;;;;;16.50;10.97;;;;;;;;;;5056562;28;20467;-70
2023/04/17 08:56:29;;;;;;;20.30;11.70;;;;;;;;;;5066453;28;20516;-71
2023/04/17 08:59:00;;;;;;;21.00;12.00;;;;;;;;;;5065220;28;20453;-71
2023/04/17 09:01:29;;;;;;;21.43;12.63;;;;;;;;;;5065231;28;20465;-70
2023/04/17 09:04:55;;;;;;;16.90;11.77;;;;;;;;;;5070863;28;20571;-73
2023/04/17 09:07:38;;;;;;;18.33;12.27;;;;;;;;;;5054735;28;20468;-72
2023/04/17 09:13:07;;;;;;;17.33;11.90;;;;;;;;;;5066047;28;20488;-71
2023/04/17 09:15:43;;;;;;;15.30;11.13;;;;;;;;;;5068327;28;20553;-71
2023/04/17 09:18:29;;;;;;;19.07;12.97;;;;;;;;;;5055196;28;20491;-71
2023/04/17 09:20:58;;;;;;;21.60;13.63;;;;;;;;;;5060305;28;20539;-71
2023/04/17 09:24:04;;;;;;;31.00;22.43;;;;;;;;;;5055005;28;20794;-72
2023/04/17 09:26:35;;;;;;;22.77;13.87;;;;;;;;;;5074938;28;20472;-71
2023/04/17 09:29:17;;;;;;;17.87;13.07;;;;;;;;;;5067302;28;20471;-70
2023/04/17 09:31:50;;;;;;;16.47;12.67;;;;;;;;;;5069264;28;20469;-70
2023/04/17 09:34:21;;;;;;;15.03;11.63;;;;;;;;;;5067793;28;20544;-73
2023/04/17 09:37:08;;;;;;;18.27;12.50;;;;;;;;;;5060012;28;21018;-71
2023/04/17 09:39:52;;;;;;;17.00;12.17;;;;;;;;;;5053419;28;20464;-72
2023/04/17 09:43:21;;;;;;;16.37;12.47;;;;;;;;;;5071857;28;20538;-72
2023/04/17 09:46:13;;;;;;;19.20;12.10;;;;;;;;;;5057430;28;20571;-72
2023/04/17 09:51:26;;;;;;;17.23;11.70;;;;;;;;;;5054701;28;20452;-71
2023/04/17 09:53:59;;;;;;;15.43;10.97;;;;;;;;;;5053332;28;20868;-72
2023/04/17 09:56:47;;;;;;;19.17;13.10;;;;;;;;;;5062791;28;20540;-72
2023/04/17 09:59:27;;;;;;;16.90;11.10;;;;;;;;;;5046735;28;20977;-71
2023/04/17 10:02:02;;;;;;;17.63;11.00;;;;;;;;;;5062009;28;20834;-71
2023/04/17 10:12:40;;;;;;;17.07;12.47;;;;;;;;;;5053037;28;20237;-71
2023/04/17 10:15:19;;;;;;;16.97;11.40;;;;;;;;;;5051493;28;20580;-73
2023/04/17 10:17:55;;;;;;;15.23;9.97;;;;;;;;;;5035500;28;20484;-71
2023/04/17 10:23:41;;;;;;;12.93;10.37;;;;;;;;;;5051959;28;20475;-71
2023/04/17 10:26:41;;;;;;;16.90;11.40;;;;;;;;;;5043103;28;20802;-70
2023/04/17 10:29:11;;;;;;;13.77;9.93;;;;;;;;;;5040499;28;20723;-70
2023/04/17 10:31:58;;;;;;;16.53;11.47;;;;;;;;;;5051494;28;20562;-70
2023/04/17 10:34:55;;;;;;;15.80;12.03;;;;;;;;;;5054476;28;20462;-70
2023/04/17 10:37:41;;;;;;;21.00;13.63;;;;;;;;;;5052117;28;20458;-70
2023/04/17 10:40:36;;;;;;;16.73;11.43;;;;;;;;;;5041613;28;20527;-71
2023/04/17 10:46:14;;;;;;;13.40;10.73;;;;;;;;;;5055813;28;20583;-70
2023/04/17 10:48:55;;;;;;;14.87;10.53;;;;;;;;;;5069110;28;20457;-70
2023/04/17 10:51:59;;;;;;;;;;;;;;;;;;;;;
2023/04/17 10:57:38;;;;;;;11.67;8.50;;;;;;;;;;5055965;28;20560;-73
2023/04/17 11:00:14;;;;;;;13.67;8.87;;;;;;;;;;5071445;28;20449;-72
2023/04/17 11:02:42;;;;;;;10.70;7.70;;;;;;;;;;5068898;28;20896;-71
2023/04/17 11:05:10;;;;;;;15.90;9.43;;;;;;;;;;5073893;28;20453;-72
2023/04/17 11:07:40;;;;;;;12.63;8.87;;;;;;;;;;5071741;28;20457;-71
2023/04/17 11:10:11;;;;;;;11.37;8.47;;;;;;;;;;5073869;28;20484;-72
2023/04/17 11:12:50;;;;;;;12.90;8.70;;;;;;;;;;5070258;28;20945;-73
2023/04/17 11:15:28;;;;;;;10.80;8.50;;;;;;;;;;5072574;28;20690;-71
2023/04/17 11:18:00;;;;;;;12.23;8.60;;;;;;;;;;5060136;28;20466;-71
2023/04/17 11:20:31;;;;;;;11.30;7.53;;;;;;;;;;5050227;28;20457;-72
2023/04/17 11:23:14;;;;;;;11.97;7.17;;;;;;;;;;5050343;28;20478;-72
2023/04/17 11:25:50;;;;;;;8.03;6.70;;;;;;;;;;5052873;28;20960;-72
2023/04/17 11:28:21;;;;;;;11.63;7.70;;;;;;;;;;5049140;28;20802;-71
2023/04/17 11:30:54;;;;;;;10.07;6.20;;;;;;;;;;5065216;28;20450;-72
2023/04/17 11:33:22;;;;;;;10.00;7.73;;;;;;;;;;5056674;28;20450;-71
2023/04/17 11:35:53;;;;;;;13.13;7.80;;;;;;;;;;5050330;28;20960;-70
2023/04/17 11:38:25;;;;;;;13.40;7.03;;;;;;;;;;5067010;28;20550;-70
2023/04/17 11:40:58;;;;;;;11.17;6.23;;;;;;;;;;5068303;28;20560;-72
2023/04/17 11:43:29;;;;;;;10.70;6.70;;;;;;;;;;5065068;28;20524;-71
2023/04/17 11:46:12;;;;;;;8.13;5.70;;;;;;;;;;5065321;28;20503;-72
2023/04/17 11:48:48;;;;;;;9.83;5.90;;;;;;;;;;5067726;28;20445;-71
2023/04/17 11:51:25;;;;;;;10.80;6.40;;;;;;;;;;5047259;28;20530;-71
2023/04/17 11:57:16;;;;;;;8.63;5.43;;;;;;;;;;5002903;28;20525;-70
2023/04/17 11:59:54;;;;;;;9.90;5.40;;;;;;;;;;5048697;28;21111;-70
2023/04/17 12:02:39;;;;;;;7.80;4.97;;;;;;;;;;5064081;28;20460;-70
2023/04/17 12:05:24;;;;;;;7.37;5.43;;;;;;;;;;5054484;28;20457;-72
2023/04/17 12:08:13;;;;;;;10.17;6.30;;;;;;;;;;5053943;28;20457;-72
2023/04/17 12:10:44;;;;;;;12.70;6.33;;;;;;;;;;5072364;28;20457;-72
2023/04/17 12:13:26;;;;;;;13.17;6.47;;;;;;;;;;5070774;28;20523;-73
2023/04/17 12:16:16;;;;;;;9.00;5.20;;;;;;;;;;5073702;28;20520;-73
2023/04/17 12:21:57;;;;;;;10.20;5.70;;;;;;;;;;5073295;28;20463;-73
2023/04/17 12:24:27;;;;;;;8.83;5.93;;;;;;;;;;5075086;28;20534;-72
2023/04/17 12:26:54;;;;;;;9.40;5.37;;;;;;;;;;5075721;28;20465;-73
2023/04/17 12:29:35;;;;;;;8.23;5.10;;;;;;;;;;5075622;28;20459;-73
2023/04/17 12:32:05;;;;;;;7.83;5.13;;;;;;;;;;5066217;28;20591;-72
2023/04/17 12:34:33;;;;;;;9.33;5.93;;;;;;;;;;5073481;28;20444;-72
2023/04/17 12:37:02;;;;;;;8.90;6.00;;;;;;;;;;5071612;28;20449;-71
2023/04/17 12:39:33;;;;;;;6.80;4.47;;;;;;;;;;5072819;28;20457;-71
2023/04/17 12:42:03;;;;;;;12.10;5.63;;;;;;;;;;5072590;28;20457;-72
2023/04/17 12:44:34;;;;;;;7.20;5.53;;;;;;;;;;5072778;28;20495;-71
2023/04/17 12:47:10;;;;;;;6.60;4.87;;;;;;;;;;5068890;28;20452;-73
2023/04/17 12:49:47;;;;;;;9.33;5.10;;;;;;;;;;5072381;28;20460;-73
2023/04/17 12:55:25;;;;;;;8.10;6.13;;;;;;;;;;5072522;28;20416;-71
2023/04/17 13:00:35;;;;;;;9.10;4.77;;;;;;;;;;5054225;28;20466;-71
2023/04/17 13:03:09;;;;;;;7.80;5.53;;;;;;;;;;5052181;28;20457;-72
2023/04/17 13:05:51;;;;;;;11.00;5.80;;;;;;;;;;5054057;28;20663;-72
2023/04/17 13:08:20;;;;;;;10.73;6.40;;;;;;;;;;5059641;28;20468;-73
2023/04/17 13:10:49;;;;;;;7.70;5.87;;;;;;;;;;5066438;28;20606;-72
2023/04/17 13:13:21;;;;;;;9.20;6.77;;;;;;;;;;5062230;28;21144;-74
2023/04/17 13:15:55;;;;;;;9.07;4.83;;;;;;;;;;5070351;28;20452;-73
2023/04/17 13:18:43;;;;;;;8.40;6.97;;;;;;;;;;5072300;28;20449;-71
2023/04/17 13:24:28;;;;;;;11.67;8.53;;;;;;;;;;4999257;28;21126;-73
2023/04/17 13:27:11;;;;;;;;;;;;;;;;;;;;;
2023/04/17 13:29:40;;;;;;;9.17;5.60;;;;;;;;;;5043410;28;20466;-72
2023/04/17 13:37:59;;;;;;;7.80;5.20;;;;;;;;;;5044582;28;20494;-72
2023/04/17 13:40:37;;;;;;;7.70;5.43;;;;;;;;;;5046600;28;20599;-69
2023/04/17 13:46:14;;;;;;;8.60;4.77;;;;;;;;;;5054867;28;20442;-70
2023/04/17 13:48:50;;;;;;;7.00;3.77;;;;;;;;;;5040450;28;20465;-70
2023/04/17 13:51:30;;;;;;;10.13;4.17;;;;;;;;;;5053004;28;20838;-70
2023/04/17 13:53:59;;;;;;;16.53;9.80;;;;;;;;;;5050544;28;20461;-71
2023/04/17 13:56:50;;;;;;;4.70;2.97;;;;;;;;;;5049706;28;20442;-72
2023/04/17 13:59:21;;;;;;;4.63;3.43;;;;;;;;;;5052827;28;20753;-70
2023/04/17 14:02:00;;;;;;;4.73;3.33;;;;;;;;;;5050172;28;20461;-70
2023/04/17 14:07:37;;;;;;;10.70;3.80;;;;;;;;;;5036542;28;20458;-70
2023/04/17 14:10:16;;;;;;;4.97;4.10;;;;;;;;;;5045464;28;20463;-69
2023/04/17 14:12:45;;;;;;;7.93;4.47;;;;;;;;;;5030269;28;20461;-69
2023/04/17 14:15:13;;;;;;;6.27;4.17;;;;;;;;;;5033563;28;20497;-70
2023/04/17 14:20:53;;;;;;;16.80;12.07;;;;;;;;;;5020898;28;20467;-70
2023/04/17 14:26:23;;;;;;;7.97;4.80;;;;;;;;;;5048743;28;20474;-71
2023/04/17 14:28:54;;;;;;;9.07;5.80;;;;;;;;;;5059987;28;20547;-72
2023/04/17 14:31:28;;;;;;;8.47;6.50;;;;;;;;;;5048144;28;20457;-70
2023/04/17 14:34:07;;;;;;;8.80;6.10;;;;;;;;;;5057274;28;20506;-70
2023/04/17 14:36:44;;;;;;;8.73;6.20;;;;;;;;;;5067421;28;20538;-70
2023/04/17 14:39:22;;;;;;;8.97;5.70;;;;;;;;;;5066169;28;20795;-70
2023/04/17 14:41:55;;;;;;;12.63;7.40;;;;;;;;;;5060581;28;20475;-69
2023/04/17 14:44:30;;;;;;;9.23;7.30;;;;;;;;;;5063336;28;20496;-69
2023/04/17 14:47:01;;;;;;;10.67;8.03;;;;;;;;;;5058309;28;20487;-70
2023/04/17 14:49:40;;;;;;;14.23;11.23;;;;;;;;;;5067778;28;20448;-70
2023/04/17 14:52:10;;;;;;;12.03;7.90;;;;;;;;;;5070655;28;20504;-70
2023/04/17 14:54:40;;;;;;;8.63;6.37;;;;;;;;;;5067860;28;20791;-70
2023/04/17 14:57:16;;;;;;;13.13;7.77;;;;;;;;;;5059412;28;20442;-70
2023/04/17 15:00:03;;;;;;;8.50;5.83;;;;;;;;;;5063145;28;20539;-70
2023/04/17 15:02:37;;;;;;;10.90;7.80;;;;;;;;;;5067688;28;20575;-70
2023/04/17 15:05:11;;;;;;;10.50;7.97;;;;;;;;;;5067596;28;20481;-71
2023/04/17 15:07:45;;;;;;;18.53;9.00;;;;;;;;;;5063411;28;20464;-70
2023/04/17 15:10:28;;;;;;;13.83;8.60;;;;;;;;;;5070211;28;20450;-70
2023/04/17 15:13:02;;;;;;;11.50;8.37;;;;;;;;;;5052029;28;20466;-71
2023/04/17 15:15:45;;;;;;;12.97;8.00;;;;;;;;;;5047709;28;20543;-71
2023/04/17 15:18:15;;;;;;;11.53;9.30;;;;;;;;;;5053684;28;20781;-70
2023/04/17 15:20:45;;;;;;;14.80;9.67;;;;;;;;;;5048853;28;20446;-70
2023/04/17 15:23:16;;;;;;;15.10;9.37;;;;;;;;;;5050616;28;20797;-69
2023/04/17 15:25:45;;;;;;;13.07;10.37;;;;;;;;;;5048411;28;20497;-70
2023/04/17 15:28:13;;;;;;;14.30;8.47;;;;;;;;;;5046472;28;20469;-71
2023/04/17 15:30:48;;;;;;;11.93;9.13;;;;;;;;;;5064774;28;20441;-71
2023/04/17 15:33:17;;;;;;;12.00;8.70;;;;;;;;;;5055248;28;20749;-70
2023/04/17 15:38:52;;;;;;;12.63;9.60;;;;;;;;;;5060270;28;20544;-71
2023/04/17 15:41:23;;;;;;;17.17;10.30;;;;;;;;;;5072084;28;20457;-72
2023/04/17 15:44:11;;;;;;;12.47;8.60;;;;;;;;;;5071658;28;20865;-70
2023/04/17 15:46:44;;;;;;;12.60;7.10;;;;;;;;;;5071990;28;20754;-70
2023/04/17 15:49:12;;;;;;;14.00;8.90;;;;;;;;;;5070695;28;20469;-70
2023/04/17 15:51:40;;;;;;;12.70;8.40;;;;;;;;;;5071118;28;20560;-71
2023/04/17 15:54:10;;;;;;;11.20;7.67;;;;;;;;;;5050779;28;20448;-71
2023/04/17 15:56:50;;;;;;;9.27;7.50;;;;;;;;;;5054449;28;20453;-71
2023/04/17 15:59:22;;;;;;;8.03;6.53;;;;;;;;;;5068042;28;21067;-71
2023/04/17 16:01:51;;;;;;;9.07;6.53;;;;;;;;;;5069432;28;20453;-72
2023/04/17 16:04:22;;;;;;;8.27;5.73;;;;;;;;;;5065305;28;20549;-71
2023/04/17 16:07:00;;;;;;;6.50;4.80;;;;;;;;;;5069508;28;20750;-70
2023/04/17 16:09:28;;;;;;;8.47;5.57;;;;;;;;;;5070303;28;20875;-70
2023/04/17 16:12:01;;;;;;;6.23;5.43;;;;;;;;;;5073120;28;20579;-71
2023/04/17 16:14:35;;;;;;;7.37;5.40;;;;;;;;;;5072028;28;20460;-71
2023/04/17 16:17:03;;;;;;;7.53;4.97;;;;;;;;;;5068023;28;20456;-72